Elk, Wisconsin
Current Conditions -  °F | °C
As of 3:35 PM on Wednesday 17 Dec 2014 (Local Time) from KPBH Reporting Station
Light Snow Light Snow  
Wind Chill: 12°   Ceiling: 2000
Heat Index: 19°   Visibility: 7mi
Dew Point: 14°   Wind: 5mph
Humidity: 80%   Direction: 310°NW
Pressure: 30.2"   Gusts: NA
Location:  45.7439°N, 90.2959°W
Report Text: KPBH 172135Z AUTO 31004KT 7SM -SN OVC020 M07/M10 A3020 RMK AO2 T10731102
Loading
Personal Weather Stations






























Interactive Weather Map New forecast layout! Learn more

10-Day Weather Forecast

Advertisements
Track Severe Weather on mobile